sensor_id;sensor_type;location;lat;lon;timestamp;pressure;altitude;pressure_sealevel;temperature;humidity
70407;BME280;57821;52.202;0.154;2023-12-07T00:02:03;101587.84;;;3.53;90.41
70407;BME280;57821;52.202;0.154;2023-12-07T00:04:31;101639.53;;;3.86;90.62
70407;BME280;57821;52.202;0.154;2023-12-07T00:06:58;101661.31;;;3.97;91.17
70407;BME280;57821;52.202;0.154;2023-12-07T00:09:25;101626.53;;;3.82;90.51
70407;BME280;57821;52.202;0.154;2023-12-07T00:11:51;101649.59;;;4.04;90.98
70407;BME280;57821;52.202;0.154;2023-12-07T00:14:18;101653.09;;;4.06;90.51
70407;BME280;57821;52.202;0.154;2023-12-07T00:16:45;101600.31;;;3.90;90.58
70407;BME280;57821;52.202;0.154;2023-12-07T00:19:11;101598.84;;;3.95;90.85
70407;BME280;57821;52.202;0.154;2023-12-07T00:21:38;101630.38;;;4.17;90.80
70407;BME280;57821;52.202;0.154;2023-12-07T00:24:05;101628.69;;;4.17;91.03
70407;BME280;57821;52.202;0.154;2023-12-07T00:26:32;101619.38;;;4.19;90.99
70407;BME280;57821;52.202;0.154;2023-12-07T00:28:58;101623.63;;;4.19;91.10
70407;BME280;57821;52.202;0.154;2023-12-07T00:31:25;101620.13;;;4.17;90.24
70407;BME280;57821;52.202;0.154;2023-12-07T00:33:52;101620.41;;;4.24;90.33
70407;BME280;57821;52.202;0.154;2023-12-07T00:36:19;101622.19;;;4.27;91.12
70407;BME280;57821;52.202;0.154;2023-12-07T00:38:46;101604.72;;;4.17;90.93
70407;BME280;57821;52.202;0.154;2023-12-07T00:41:13;101613.78;;;4.31;91.24
70407;BME280;57821;52.202;0.154;2023-12-07T00:43:39;101592.25;;;4.27;90.47
70407;BME280;57821;52.202;0.154;2023-12-07T00:46:07;101592.53;;;4.35;90.74
70407;BME280;57821;52.202;0.154;2023-12-07T00:48:34;101593.44;;;4.37;91.33
70407;BME280;57821;52.202;0.154;2023-12-07T00:51:01;101570.25;;;4.34;91.23
70407;BME280;57821;52.202;0.154;2023-12-07T00:53:29;101562.38;;;4.29;90.59
70407;BME280;57821;52.202;0.154;2023-12-07T00:55:55;101583.38;;;4.43;90.75
70407;BME280;57821;52.202;0.154;2023-12-07T00:58:22;101532.91;;;4.18;90.66
70407;BME280;57821;52.202;0.154;2023-12-07T01:00:49;101558.28;;;4.34;90.94
70407;BME280;57821;52.202;0.154;2023-12-07T01:03:16;101562.63;;;4.37;90.81
70407;BME280;57821;52.202;0.154;2023-12-07T01:05:43;101561.94;;;4.41;90.86
70407;BME280;57821;52.202;0.154;2023-12-07T01:08:10;101567.28;;;4.47;91.42
70407;BME280;57821;52.202;0.154;2023-12-07T01:10:36;101552.69;;;4.46;90.88
70407;BME280;57821;52.202;0.154;2023-12-07T01:13:03;101552.06;;;4.53;90.81
70407;BME280;57821;52.202;0.154;2023-12-07T01:15:30;101528.56;;;4.41;91.65
70407;BME280;57821;52.202;0.154;2023-12-07T01:17:56;101545.19;;;4.52;91.67
70407;BME280;57821;52.202;0.154;2023-12-07T01:20:23;101539.22;;;4.53;91.18
70407;BME280;57821;52.202;0.154;2023-12-07T01:22:50;101548.03;;;4.61;91.54
70407;BME280;57821;52.202;0.154;2023-12-07T01:25:18;101540.34;;;4.61;90.69
70407;BME280;57821;52.202;0.154;2023-12-07T01:27:49;101535.19;;;4.60;90.64
70407;BME280;57821;52.202;0.154;2023-12-07T01:30:15;101540.44;;;4.64;90.39
70407;BME280;57821;52.202;0.154;2023-12-07T01:32:43;101515.31;;;4.54;90.69
70407;BME280;57821;52.202;0.154;2023-12-07T01:35:10;101529.16;;;4.59;91.33
70407;BME280;57821;52.202;0.154;2023-12-07T01:37:37;101530.72;;;4.54;91.67
70407;BME280;57821;52.202;0.154;2023-12-07T01:40:04;101546.41;;;4.63;91.95
70407;BME280;57821;52.202;0.154;2023-12-07T01:42:37;101553.53;;;4.72;90.72
70407;BME280;57821;52.202;0.154;2023-12-07T01:45:06;101540.66;;;4.70;91.61
70407;BME280;57821;52.202;0.154;2023-12-07T01:47:35;101498.03;;;4.50;90.76
70407;BME280;57821;52.202;0.154;2023-12-07T01:50:02;101558.91;;;4.79;90.83
70407;BME280;57821;52.202;0.154;2023-12-07T01:52:35;101550.47;;;4.83;91.26
70407;BME280;57821;52.202;0.154;2023-12-07T01:55:04;101545.25;;;4.80;90.89
70407;BME280;57821;52.202;0.154;2023-12-07T01:57:31;101547.09;;;4.84;91.80
70407;BME280;57821;52.202;0.154;2023-12-07T01:59:58;101540.31;;;4.86;91.07
70407;BME280;57821;52.202;0.154;2023-12-07T02:02:25;101541.38;;;4.93;91.94
70407;BME280;57821;52.202;0.154;2023-12-07T02:04:52;101495.31;;;4.72;90.99
70407;BME280;57821;52.202;0.154;2023-12-07T02:07:19;101492.72;;;4.71;91.28
70407;BME280;57821;52.202;0.154;2023-12-07T02:09:46;101517.25;;;4.88;91.78
70407;BME280;57821;52.202;0.154;2023-12-07T02:12:13;101517.25;;;4.88;91.78
70407;BME280;57821;52.202;0.154;2023-12-07T02:14:39;101537.41;;;5.03;91.25
70407;BME280;57821;52.202;0.154;2023-12-07T02:17:18;101516.44;;;4.90;91.90
70407;BME280;57821;52.202;0.154;2023-12-07T02:19:52;101529.75;;;5.04;91.48
70407;BME280;57821;52.202;0.154;2023-12-07T02:22:26;101536.75;;;5.10;91.93
70407;BME280;57821;52.202;0.154;2023-12-07T02:25:14;101495.13;;;4.93;92.47
70407;BME280;57821;52.202;0.154;2023-12-07T02:27:42;101483.88;;;4.89;92.36
70407;BME280;57821;52.202;0.154;2023-12-07T02:30:12;101524.19;;;5.19;92.41
70407;BME280;57821;52.202;0.154;2023-12-07T02:32:41;101520.78;;;5.20;91.95
70407;BME280;57821;52.202;0.154;2023-12-07T02:35:09;101493.06;;;5.10;92.05
70407;BME280;57821;52.202;0.154;2023-12-07T02:37:41;101469.56;;;4.97;92.07
70407;BME280;57821;52.202;0.154;2023-12-07T02:40:09;101477.72;;;5.13;92.11
70407;BME280;57821;52.202;0.154;2023-12-07T02:42:38;101505.53;;;5.26;92.41
70407;BME280;57821;52.202;0.154;2023-12-07T02:45:08;101485.78;;;5.23;91.39
70407;BME280;57821;52.202;0.154;2023-12-07T02:47:36;101451.81;;;5.07;92.31
70407;BME280;57821;52.202;0.154;2023-12-07T02:50:05;101464.09;;;5.15;91.53
70407;BME280;57821;52.202;0.154;2023-12-07T02:52:33;101492.97;;;5.35;92.17
70407;BME280;57821;52.202;0.154;2023-12-07T02:55:00;101492.13;;;5.36;91.52
70407;BME280;57821;52.202;0.154;2023-12-07T02:57:26;101484.38;;;5.34;92.20
70407;BME280;57821;52.202;0.154;2023-12-07T02:59:53;101489.72;;;5.41;91.56
70407;BME280;57821;52.202;0.154;2023-12-07T03:02:20;101487.16;;;5.42;92.16
70407;BME280;57821;52.202;0.154;2023-12-07T03:04:50;101481.16;;;5.42;92.26
70407;BME280;57821;52.202;0.154;2023-12-07T03:07:17;101479.41;;;5.41;92.06
70407;BME280;57821;52.202;0.154;2023-12-07T03:09:43;101445.69;;;5.30;91.57
70407;BME280;57821;52.202;0.154;2023-12-07T03:12:10;101465.84;;;5.46;92.52
70407;BME280;57821;52.202;0.154;2023-12-07T03:14:37;101443.31;;;5.37;92.06
70407;BME280;57821;52.202;0.154;2023-12-07T03:17:03;101455.66;;;5.49;91.79
70407;BME280;57821;52.202;0.154;2023-12-07T03:19:30;101458.31;;;5.52;92.25
70407;BME280;57821;52.202;0.154;2023-12-07T03:21:57;101441.88;;;5.47;91.33
70407;BME280;57821;52.202;0.154;2023-12-07T03:24:25;101429.03;;;5.47;91.09
70407;BME280;57821;52.202;0.154;2023-12-07T03:26:52;101416.91;;;5.43;92.29
70407;BME280;57821;52.202;0.154;2023-12-07T03:29:18;101446.50;;;5.59;92.00
70407;BME280;57821;52.202;0.154;2023-12-07T03:31:45;101434.41;;;5.56;91.31
70407;BME280;57821;52.202;0.154;2023-12-07T03:34:12;101433.66;;;5.60;92.01
70407;BME280;57821;52.202;0.154;2023-12-07T03:36:45;101424.13;;;5.56;91.45
70407;BME280;57821;52.202;0.154;2023-12-07T03:39:14;101428.66;;;5.65;92.26
70407;BME280;57821;52.202;0.154;2023-12-07T03:41:41;101434.69;;;5.67;91.35
70407;BME280;57821;52.202;0.154;2023-12-07T03:44:08;101399.28;;;5.57;91.39
70407;BME280;57821;52.202;0.154;2023-12-07T03:46:35;101413.28;;;5.68;91.88
70407;BME280;57821;52.202;0.154;2023-12-07T03:49:02;101402.16;;;5.69;90.87
70407;BME280;57821;52.202;0.154;2023-12-07T03:51:30;101402.16;;;5.69;92.06
70407;BME280;57821;52.202;0.154;2023-12-07T03:53:57;101376.16;;;5.58;91.39
70407;BME280;57821;52.202;0.154;2023-12-07T03:56:25;101397.97;;;5.72;91.63
70407;BME280;57821;52.202;0.154;2023-12-07T03:58:52;101397.13;;;5.73;91.24
70407;BME280;57821;52.202;0.154;2023-12-07T04:01:27;101386.03;;;5.74;90.73
70407;BME280;57821;52.202;0.154;2023-12-07T04:03:56;101369.50;;;5.66;91.07
70407;BME280;57821;52.202;0.154;2023-12-07T04:06:24;101363.78;;;5.78;92.21
70407;BME280;57821;52.202;0.154;2023-12-07T04:08:51;101350.81;;;5.73;91.02
70407;BME280;57821;52.202;0.154;2023-12-07T04:11:18;101350.19;;;5.82;91.97
70407;BME280;57821;52.202;0.154;2023-12-07T04:13:45;101339.66;;;5.73;91.32
70407;BME280;57821;52.202;0.154;2023-12-07T04:16:11;101339.97;;;5.85;92.09
70407;BME280;57821;52.202;0.154;2023-12-07T04:18:38;101320.72;;;5.71;91.73
70407;BME280;57821;52.202;0.154;2023-12-07T04:21:05;101343.50;;;5.89;91.23
70407;BME280;57821;52.202;0.154;2023-12-07T04:23:32;101329.56;;;5.81;91.60
70407;BME280;57821;52.202;0.154;2023-12-07T04:25:59;101344.41;;;5.91;91.62
70407;BME280;57821;52.202;0.154;2023-12-07T04:28:26;101336.78;;;5.94;91.31
70407;BME280;57821;52.202;0.154;2023-12-07T04:30:53;101335.94;;;5.95;91.72
70407;BME280;57821;52.202;0.154;2023-12-07T04:33:20;101305.56;;;5.82;91.51
70407;BME280;57821;52.202;0.154;2023-12-07T04:35:47;101325.56;;;5.92;90.95
70407;BME280;57821;52.202;0.154;2023-12-07T04:38:14;101332.56;;;5.97;91.77
70407;BME280;57821;52.202;0.154;2023-12-07T04:40:40;101317.91;;;5.93;91.48
70407;BME280;57821;52.202;0.154;2023-12-07T04:43:08;101303.00;;;5.82;91.51
70407;BME280;57821;52.202;0.154;2023-12-07T04:45:35;101337.91;;;6.05;91.79
70407;BME280;57821;52.202;0.154;2023-12-07T04:48:02;101311.06;;;5.94;92.07
70407;BME280;57821;52.202;0.154;2023-12-07T04:50:30;101289.38;;;5.86;92.50
70407;BME280;57821;52.202;0.154;2023-12-07T04:52:57;101298.19;;;5.94;91.61
70407;BME280;57821;52.202;0.154;2023-12-07T04:55:26;101273.91;;;5.86;92.22
70407;BME280;57821;52.202;0.154;2023-12-07T04:57:55;101295.03;;;6.07;91.58
70407;BME280;57821;52.202;0.154;2023-12-07T05:00:22;101302.91;;;6.13;92.43
70407;BME280;57821;52.202;0.154;2023-12-07T05:02:49;101305.56;;;6.16;91.65
70407;BME280;57821;52.202;0.154;2023-12-07T05:05:16;101283.00;;;6.06;92.57
70407;BME280;57821;52.202;0.154;2023-12-07T05:07:43;101263.06;;;5.97;92.79
70407;BME280;57821;52.202;0.154;2023-12-07T05:10:09;101284.00;;;6.11;91.88
70407;BME280;57821;52.202;0.154;2023-12-07T05:12:36;101266.63;;;6.02;92.35
70407;BME280;57821;52.202;0.154;2023-12-07T05:15:04;101292.75;;;6.19;92.01
70407;BME280;57821;52.202;0.154;2023-12-07T05:17:32;101265.06;;;6.09;92.46
70407;BME280;57821;52.202;0.154;2023-12-07T05:19:59;101264.13;;;6.05;92.05
70407;BME280;57821;52.202;0.154;2023-12-07T05:22:26;101284.19;;;6.20;92.00
70407;BME280;57821;52.202;0.154;2023-12-07T05:24:54;101230.34;;;5.92;92.10
70407;BME280;57821;52.202;0.154;2023-12-07T05:27:21;101275.53;;;6.18;92.04
70407;BME280;57821;52.202;0.154;2023-12-07T05:29:47;101272.97;;;6.18;92.61
70407;BME280;57821;52.202;0.154;2023-12-07T05:32:14;101252.19;;;6.09;91.87
70407;BME280;57821;52.202;0.154;2023-12-07T05:34:41;101278.22;;;6.21;92.79
70407;BME280;57821;52.202;0.154;2023-12-07T05:37:08;101248.78;;;6.10;92.48
70407;BME280;57821;52.202;0.154;2023-12-07T05:39:35;101263.50;;;6.15;91.93
70407;BME280;57821;52.202;0.154;2023-12-07T05:42:02;101267.81;;;6.18;92.30
70407;BME280;57821;52.202;0.154;2023-12-07T05:44:30;101272.22;;;6.22;92.71
70407;BME280;57821;52.202;0.154;2023-12-07T05:46:57;101267.91;;;6.21;92.49
70407;BME280;57821;52.202;0.154;2023-12-07T05:49:24;101271.31;;;6.20;93.03
70407;BME280;57821;52.202;0.154;2023-12-07T05:51:51;101253.97;;;6.13;92.34
70407;BME280;57821;52.202;0.154;2023-12-07T05:54:19;101261.88;;;6.21;92.70
70407;BME280;57821;52.202;0.154;2023-12-07T05:56:48;101259.41;;;6.25;92.45
70407;BME280;57821;52.202;0.154;2023-12-07T05:59:16;101258.53;;;6.23;92.16
70407;BME280;57821;52.202;0.154;2023-12-07T06:01:42;101240.38;;;6.17;92.51
70407;BME280;57821;52.202;0.154;2023-12-07T06:04:10;101231.59;;;6.09;92.51
70407;BME280;57821;52.202;0.154;2023-12-07T06:06:38;101259.44;;;6.27;92.38
70407;BME280;57821;52.202;0.154;2023-12-07T06:09:05;101256.00;;;6.26;92.21
70407;BME280;57821;52.202;0.154;2023-12-07T06:11:32;101241.19;;;6.17;93.00
70407;BME280;57821;52.202;0.154;2023-12-07T06:14:00;101234.31;;;6.15;93.48
70407;BME280;57821;52.202;0.154;2023-12-07T06:16:27;101228.28;;;6.14;93.26
70407;BME280;57821;52.202;0.154;2023-12-07T06:18:54;101225.75;;;6.17;93.47
70407;BME280;57821;52.202;0.154;2023-12-07T06:21:21;101240.53;;;6.26;92.94
70407;BME280;57821;52.202;0.154;2023-12-07T06:23:47;101244.09;;;6.31;92.82
70407;BME280;57821;52.202;0.154;2023-12-07T06:26:14;101209.47;;;6.17;93.95
70407;BME280;57821;52.202;0.154;2023-12-07T06:28:41;101230.28;;;6.28;93.21
70407;BME280;57821;52.202;0.154;2023-12-07T06:31:09;101199.03;;;6.11;93.79
70407;BME280;57821;52.202;0.154;2023-12-07T06:33:36;101221.56;;;6.21;93.96
70407;BME280;57821;52.202;0.154;2023-12-07T06:36:03;101216.47;;;6.24;93.98
70407;BME280;57821;52.202;0.154;2023-12-07T06:38:30;101215.63;;;6.25;94.50
70407;BME280;57821;52.202;0.154;2023-12-07T06:40:57;101224.22;;;6.26;94.74
70407;BME280;57821;52.202;0.154;2023-12-07T06:43:24;101207.72;;;6.16;94.61
70407;BME280;57821;52.202;0.154;2023-12-07T06:45:51;101238.94;;;6.31;94.61
70407;BME280;57821;52.202;0.154;2023-12-07T06:48:18;101227.72;;;6.28;95.29
70407;BME280;57821;52.202;0.154;2023-12-07T06:50:45;101210.28;;;6.16;94.97
70407;BME280;57821;52.202;0.154;2023-12-07T06:53:14;101195.59;;;6.12;94.80
70407;BME280;57821;52.202;0.154;2023-12-07T06:55:41;101219.06;;;6.26;94.62
70407;BME280;57821;52.202;0.154;2023-12-07T06:58:11;101202.56;;;6.16;95.28
70407;BME280;57821;52.202;0.154;2023-12-07T07:00:38;101204.44;;;6.23;95.22
70407;BME280;57821;52.202;0.154;2023-12-07T07:03:05;101212.22;;;6.26;95.63
70407;BME280;57821;52.202;0.154;2023-12-07T07:05:33;101206.09;;;6.21;96.05
70407;BME280;57821;52.202;0.154;2023-12-07T07:08:00;101194.09;;;6.22;95.83
70407;BME280;57821;52.202;0.154;2023-12-07T07:10:26;101219.16;;;6.30;95.28
70407;BME280;57821;52.202;0.154;2023-12-07T07:12:53;101170.53;;;6.03;95.98
70407;BME280;57821;52.202;0.154;2023-12-07T07:15:20;101188.88;;;6.17;95.88
70407;BME280;57821;52.202;0.154;2023-12-07T07:17:46;101207.13;;;6.29;95.88
70407;BME280;57821;52.202;0.154;2023-12-07T07:20:13;101223.56;;;6.34;95.65
70407;BME280;57821;52.202;0.154;2023-12-07T07:22:40;101206.38;;;6.33;96.35
70407;BME280;57821;52.202;0.154;2023-12-07T07:25:08;101181.97;;;6.16;96.33
70407;BME280;57821;52.202;0.154;2023-12-07T07:27:35;101173.41;;;6.17;96.66
70407;BME280;57821;52.202;0.154;2023-12-07T07:30:02;101177.84;;;6.24;96.27
70407;BME280;57821;52.202;0.154;2023-12-07T07:32:31;101177.03;;;6.27;97.43
70407;BME280;57821;52.202;0.154;2023-12-07T07:34:58;101180.63;;;6.33;96.08
70407;BME280;57821;52.202;0.154;2023-12-07T07:37:26;101138.91;;;6.09;96.60
70407;BME280;57821;52.202;0.154;2023-12-07T07:39:53;101176.25;;;6.31;96.25
70407;BME280;57821;52.202;0.154;2023-12-07T07:42:20;101134.88;;;6.22;96.98
70407;BME280;57821;52.202;0.154;2023-12-07T07:44:47;101154.72;;;6.27;97.59
70407;BME280;57821;52.202;0.154;2023-12-07T07:47:14;101141.03;;;6.28;97.27
70407;BME280;57821;52.202;0.154;2023-12-07T07:49:40;101104.66;;;6.13;97.70
70407;BME280;57821;52.202;0.154;2023-12-07T07:52:07;101111.59;;;6.15;97.44
70407;BME280;57821;52.202;0.154;2023-12-07T07:54:35;101129.81;;;6.26;97.04
70407;BME280;57821;52.202;0.154;2023-12-07T07:57:02;101102.91;;;6.10;96.82
70407;BME280;57821;52.202;0.154;2023-12-07T07:59:30;101102.19;;;6.19;97.64
70407;BME280;57821;52.202;0.154;2023-12-07T08:01:58;101129.97;;;6.35;97.81
70407;BME280;57821;52.202;0.154;2023-12-07T08:04:24;101089.16;;;6.10;97.79
70407;BME280;57821;52.202;0.154;2023-12-07T08:06:51;101115.16;;;6.22;96.80
70407;BME280;57821;52.202;0.154;2023-12-07T08:09:18;101123.00;;;6.30;96.73
70407;BME280;57821;52.202;0.154;2023-12-07T08:11:45;101134.13;;;6.27;97.03
70407;BME280;57821;52.202;0.154;2023-12-07T08:14:12;101143.72;;;6.36;97.66
70407;BME280;57821;52.202;0.154;2023-12-07T08:16:43;101113.47;;;6.24;97.65
70407;BME280;57821;52.202;0.154;2023-12-07T08:19:10;101133.38;;;6.33;97.59
70407;BME280;57821;52.202;0.154;2023-12-07T08:21:37;101112.59;;;6.24;97.41
70407;BME280;57821;52.202;0.154;2023-12-07T08:24:04;101136.91;;;6.38;97.15
70407;BME280;57821;52.202;0.154;2023-12-07T08:26:32;101124.81;;;6.34;97.70
70407;BME280;57821;52.202;0.154;2023-12-07T08:28:58;101129.97;;;6.35;97.71
70407;BME280;57821;52.202;0.154;2023-12-07T08:31:25;101117.94;;;6.33;98.03
70407;BME280;57821;52.202;0.154;2023-12-07T08:33:52;101098.09;;;6.27;96.91
70407;BME280;57821;52.202;0.154;2023-12-07T08:36:19;101105.06;;;6.33;97.79
70407;BME280;57821;52.202;0.154;2023-12-07T08:38:46;101116.34;;;6.41;97.06
70407;BME280;57821;52.202;0.154;2023-12-07T08:41:12;101117.28;;;6.44;97.10
70407;BME280;57821;52.202;0.154;2023-12-07T08:43:40;101101.84;;;6.44;97.50
70407;BME280;57821;52.202;0.154;2023-12-07T08:46:07;101117.28;;;6.44;97.38
70407;BME280;57821;52.202;0.154;2023-12-07T08:48:36;101067.09;;;6.23;96.88
70407;BME280;57821;52.202;0.154;2023-12-07T08:51:07;101084.59;;;6.40;97.93
70407;BME280;57821;52.202;0.154;2023-12-07T08:53:35;101069.00;;;6.33;97.16
70407;BME280;57821;52.202;0.154;2023-12-07T08:56:05;101094.13;;;6.44;97.44
70407;BME280;57821;52.202;0.154;2023-12-07T08:58:31;101083.84;;;6.47;96.95
70407;BME280;57821;52.202;0.154;2023-12-07T09:00:58;101074.44;;;6.49;97.39
70407;BME280;57821;52.202;0.154;2023-12-07T09:03:25;101065.03;;;6.50;97.52
70407;BME280;57821;52.202;0.154;2023-12-07T09:05:59;101052.00;;;6.42;97.53
70407;BME280;57821;52.202;0.154;2023-12-07T09:08:26;101068.50;;;6.52;97.21
70407;BME280;57821;52.202;0.154;2023-12-07T09:10:53;101059.03;;;6.52;97.00
70407;BME280;57821;52.202;0.154;2023-12-07T09:13:20;101030.41;;;6.36;96.85
70407;BME280;57821;52.202;0.154;2023-12-07T09:15:46;101065.94;;;6.53;97.75
70407;BME280;57821;52.202;0.154;2023-12-07T09:18:13;101052.25;;;6.56;97.35
70407;BME280;57821;52.202;0.154;2023-12-07T09:20:40;101041.00;;;6.52;97.45
70407;BME280;57821;52.202;0.154;2023-12-07T09:23:13;101051.41;;;6.57;97.20
70407;BME280;57821;52.202;0.154;2023-12-07T09:25:42;101025.53;;;6.52;96.54
70407;BME280;57821;52.202;0.154;2023-12-07T09:28:09;101027.28;;;6.53;96.26
70407;BME280;57821;52.202;0.154;2023-12-07T09:30:36;101016.09;;;6.51;96.19
70407;BME280;57821;52.202;0.154;2023-12-07T09:33:02;100993.72;;;6.49;96.85
70407;BME280;57821;52.202;0.154;2023-12-07T09:35:29;101014.53;;;6.61;97.19
70407;BME280;57821;52.202;0.154;2023-12-07T09:37:56;100975.63;;;6.44;96.20
70407;BME280;57821;52.202;0.154;2023-12-07T09:40:23;100976.56;;;6.49;96.63
70407;BME280;57821;52.202;0.154;2023-12-07T09:42:53;101013.75;;;6.65;96.42
70407;BME280;57821;52.202;0.154;2023-12-07T09:45:20;101002.47;;;6.58;96.33
70407;BME280;57821;52.202;0.154;2023-12-07T09:47:54;101024.94;;;6.67;96.21
70407;BME280;57821;52.202;0.154;2023-12-07T09:50:23;100992.06;;;6.52;96.38
70407;BME280;57821;52.202;0.154;2023-12-07T09:52:57;100972.22;;;6.47;96.61
70407;BME280;57821;52.202;0.154;2023-12-07T09:55:34;100983.56;;;6.56;95.96
70407;BME280;57821;52.202;0.154;2023-12-07T09:58:04;101005.25;;;6.72;96.58
70407;BME280;57821;52.202;0.154;2023-12-07T10:00:34;101002.75;;;6.77;96.98
70407;BME280;57821;52.202;0.154;2023-12-07T10:03:02;100987.09;;;6.65;96.23
70407;BME280;57821;52.202;0.154;2023-12-07T10:05:29;100989.00;;;6.75;95.87
70407;BME280;57821;52.202;0.154;2023-12-07T10:07:56;100971.75;;;6.71;95.86
70407;BME280;57821;52.202;0.154;2023-12-07T10:10:23;100990.81;;;6.82;96.15
70407;BME280;57821;52.202;0.154;2023-12-07T10:12:54;100957.91;;;6.66;95.57
70407;BME280;57821;52.202;0.154;2023-12-07T10:15:22;100988.25;;;6.83;95.66
70407;BME280;57821;52.202;0.154;2023-12-07T10:17:54;100958.00;;;6.72;96.24
70407;BME280;57821;52.202;0.154;2023-12-07T10:20:23;100984.03;;;6.87;95.79
70407;BME280;57821;52.202;0.154;2023-12-07T10:23:01;100987.47;;;6.89;95.44
70407;BME280;57821;52.202;0.154;2023-12-07T10:25:35;100984.06;;;6.90;95.41
70407;BME280;57821;52.202;0.154;2023-12-07T10:28:03;100972.91;;;6.91;95.00
70407;BME280;57821;52.202;0.154;2023-12-07T10:30:34;100963.44;;;6.90;95.50
70407;BME280;57821;52.202;0.154;2023-12-07T10:33:05;100960.94;;;6.93;95.62
70407;BME280;57821;52.202;0.154;2023-12-07T10:35:40;100942.81;;;6.90;95.29
70407;BME280;57821;52.202;0.154;2023-12-07T10:38:09;100940.31;;;6.93;94.95
70407;BME280;57821;52.202;0.154;2023-12-07T10:40:36;100932.63;;;6.97;94.90
70407;BME280;57821;52.202;0.154;2023-12-07T10:43:05;100928.25;;;6.92;94.56
70407;BME280;57821;52.202;0.154;2023-12-07T10:45:33;100924.88;;;6.96;94.61
70407;BME280;57821;52.202;0.154;2023-12-07T10:48:03;100864.34;;;6.68;94.61
70407;BME280;57821;52.202;0.154;2023-12-07T10:50:36;100917.22;;;7.02;95.02
70407;BME280;57821;52.202;0.154;2023-12-07T10:53:19;100895.59;;;6.94;94.63
70407;BME280;57821;52.202;0.154;2023-12-07T10:55:54;100898.31;;;7.03;94.87
70407;BME280;57821;52.202;0.154;2023-12-07T10:58:23;100856.00;;;6.86;94.96
70407;BME280;57821;52.202;0.154;2023-12-07T11:00:55;100881.06;;;6.99;94.79
70407;BME280;57821;52.202;0.154;2023-12-07T11:03:22;100880.22;;;7.00;94.73
70407;BME280;57821;52.202;0.154;2023-12-07T11:05:52;100877.69;;;7.03;95.01
70407;BME280;57821;52.202;0.154;2023-12-07T11:08:31;100879.44;;;7.04;94.74
70407;BME280;57821;52.202;0.154;2023-12-07T11:11:12;100837.97;;;6.86;94.10
70407;BME280;57821;52.202;0.154;2023-12-07T11:13:57;100830.19;;;6.84;94.32
70407;BME280;57821;52.202;0.154;2023-12-07T11:16:35;100868.38;;;7.14;93.80
70407;BME280;57821;52.202;0.154;2023-12-07T11:19:04;100858.09;;;7.16;93.27
70407;BME280;57821;52.202;0.154;2023-12-07T11:21:37;100851.16;;;7.10;94.63
70407;BME280;57821;52.202;0.154;2023-12-07T11:24:06;100853.81;;;7.16;94.39
70407;BME280;57821;52.202;0.154;2023-12-07T11:26:34;100813.13;;;6.94;94.27
70407;BME280;57821;52.202;0.154;2023-12-07T11:29:01;100814.03;;;6.99;93.81
70407;BME280;57821;52.202;0.154;2023-12-07T11:31:28;100850.34;;;7.17;94.02
70407;BME280;57821;52.202;0.154;2023-12-07T11:33:55;100821.84;;;7.05;93.37
70407;BME280;57821;52.202;0.154;2023-12-07T11:36:22;100831.44;;;7.15;94.40
70407;BME280;57821;52.202;0.154;2023-12-07T11:41:34;100784.78;;;6.95;93.66
70407;BME280;57821;52.202;0.154;2023-12-07T11:44:01;100791.81;;;7.07;93.59
70407;BME280;57821;52.202;0.154;2023-12-07T11:46:28;100801.31;;;7.13;93.69
70407;BME280;57821;52.202;0.154;2023-12-07T11:48:55;100818.59;;;7.23;93.56
70407;BME280;57821;52.202;0.154;2023-12-07T11:51:22;100786.69;;;7.10;93.27
70407;BME280;57821;52.202;0.154;2023-12-07T11:53:48;100810.06;;;7.25;93.09
70407;BME280;57821;52.202;0.154;2023-12-07T11:56:17;100821.28;;;7.30;92.99
70407;BME280;57821;52.202;0.154;2023-12-07T11:58:53;100820.38;;;7.25;93.21
70407;BME280;57821;52.202;0.154;2023-12-07T12:01:19;100804.88;;;7.24;93.28
70407;BME280;57821;52.202;0.154;2023-12-07T12:03:47;100811.00;;;7.33;92.74
70407;BME280;57821;52.202;0.154;2023-12-07T12:06:14;100788.66;;;7.35;93.29
70407;BME280;57821;52.202;0.154;2023-12-07T12:08:41;100780.94;;;7.37;93.64
70407;BME280;57821;52.202;0.154;2023-12-07T12:11:09;100768.88;;;7.33;93.04
70407;BME280;57821;52.202;0.154;2023-12-07T12:13:36;100743.91;;;7.30;92.85
70407;BME280;57821;52.202;0.154;2023-12-07T12:16:04;100739.63;;;7.31;92.23
70407;BME280;57821;52.202;0.154;2023-12-07T12:18:33;100751.75;;;7.39;93.01
70407;BME280;57821;52.202;0.154;2023-12-07T12:21:01;100715.44;;;7.23;92.17
70407;BME280;57821;52.202;0.154;2023-12-07T12:23:28;100728.53;;;7.39;92.85
70407;BME280;57821;52.202;0.154;2023-12-07T12:25:56;100714.75;;;7.37;92.90
70407;BME280;57821;52.202;0.154;2023-12-07T12:28:23;100720.81;;;7.42;92.33
70407;BME280;57821;52.202;0.154;2023-12-07T12:30:51;100692.25;;;7.21;92.02
70407;BME280;57821;52.202;0.154;2023-12-07T12:33:18;100699.22;;;7.31;91.67
70407;BME280;57821;52.202;0.154;2023-12-07T12:35:45;100691.44;;;7.30;91.91
70407;BME280;57821;52.202;0.154;2023-12-07T12:38:12;100687.16;;;7.27;91.69
70407;BME280;57821;52.202;0.154;2023-12-07T12:40:53;100705.34;;;7.44;92.05
70407;BME280;57821;52.202;0.154;2023-12-07T12:43:21;100676.78;;;7.24;92.16
70407;BME280;57821;52.202;0.154;2023-12-07T12:45:49;100695.84;;;7.41;91.82
70407;BME280;57821;52.202;0.154;2023-12-07T12:48:32;100686.38;;;7.39;91.29
70407;BME280;57821;52.202;0.154;2023-12-07T12:51:13;100685.56;;;7.45;91.61
70407;BME280;57821;52.202;0.154;2023-12-07T12:53:46;100670.03;;;7.38;91.42
70407;BME280;57821;52.202;0.154;2023-12-07T12:56:18;100635.56;;;7.27;91.87
70407;BME280;57821;52.202;0.154;2023-12-07T12:58:45;100628.72;;;7.32;91.62
70407;BME280;57821;52.202;0.154;2023-12-07T13:01:13;100627.00;;;7.34;91.23
70407;BME280;57821;52.202;0.154;2023-12-07T13:03:39;100615.00;;;7.36;91.86
70407;BME280;57821;52.202;0.154;2023-12-07T13:06:06;100632.25;;;7.47;91.80
70407;BME280;57821;52.202;0.154;2023-12-07T13:08:33;100615.88;;;7.41;91.65